sensor_id;sensor_type;location;lat;lon;timestamp;pressure;altitude;pressure_sealevel;temperature;humidity
10115;BME280;5097;43.260;27.812;2023-03-25T00:02:34;99955.59;;;6.66;83.79
10115;BME280;5097;43.260;27.812;2023-03-25T00:05:20;99982.25;;;6.78;84.04
10115;BME280;5097;43.260;27.812;2023-03-25T00:08:05;99989.25;;;6.57;84.12
10115;BME280;5097;43.260;27.812;2023-03-25T00:10:51;99938.06;;;6.45;84.41
10115;BME280;5097;43.260;27.812;2023-03-25T00:13:36;99942.50;;;6.20;84.62
10115;BME280;5097;43.260;27.812;2023-03-25T00:16:23;99979.28;;;6.19;85.92
10115;BME280;5097;43.260;27.812;2023-03-25T00:19:07;99960.81;;;6.22;86.65
10115;BME280;5097;43.260;27.812;2023-03-25T00:21:51;99931.81;;;6.25;85.72
10115;BME280;5097;43.260;27.812;2023-03-25T00:24:35;99970.91;;;6.77;84.65
10115;BME280;5097;43.260;27.812;2023-03-25T00:27:19;99978.13;;;6.72;83.98
10115;BME280;5097;43.260;27.812;2023-03-25T00:30:04;99977.81;;;6.80;83.61
10115;BME280;5097;43.260;27.812;2023-03-25T00:32:51;99934.16;;;6.33;84.55
10115;BME280;5097;43.260;27.812;2023-03-25T00:35:35;99964.06;;;6.51;84.45
10115;BME280;5097;43.260;27.812;2023-03-25T00:38:21;99966.81;;;6.48;84.51
10115;BME280;5097;43.260;27.812;2023-03-25T00:41:10;99910.25;;;6.41;83.63
10115;BME280;5097;43.260;27.812;2023-03-25T00:43:56;99929.75;;;6.33;84.62
10115;BME280;5097;43.260;27.812;2023-03-25T00:46:40;99947.00;;;6.17;84.94
10115;BME280;5097;43.260;27.812;2023-03-25T00:49:26;99949.00;;;6.10;85.50
10115;BME280;5097;43.260;27.812;2023-03-25T00:52:11;99900.34;;;6.03;85.54
10115;BME280;5097;43.260;27.812;2023-03-25T00:54:55;99907.38;;;6.01;85.23
10115;BME280;5097;43.260;27.812;2023-03-25T00:57:39;99940.50;;;6.27;85.49
10115;BME280;5097;43.260;27.812;2023-03-25T01:00:23;99904.09;;;5.94;85.65
10115;BME280;5097;43.260;27.812;2023-03-25T01:03:07;99903.84;;;6.02;85.21
10115;BME280;5097;43.260;27.812;2023-03-25T01:05:53;99901.19;;;6.03;85.29
10115;BME280;5097;43.260;27.812;2023-03-25T01:08:40;99911.53;;;6.30;84.94
10115;BME280;5097;43.260;27.812;2023-03-25T01:11:26;99904.06;;;6.19;85.55
10115;BME280;5097;43.260;27.812;2023-03-25T01:14:13;99872.31;;;5.56;85.68
10115;BME280;5097;43.260;27.812;2023-03-25T01:16:58;99899.78;;;5.69;85.40
10115;BME280;5097;43.260;27.812;2023-03-25T01:19:44;99876.28;;;5.66;86.18
10115;BME280;5097;43.260;27.812;2023-03-25T01:22:30;99908.94;;;5.58;87.36
10115;BME280;5097;43.260;27.812;2023-03-25T01:25:14;99902.84;;;5.57;87.93
10115;BME280;5097;43.260;27.812;2023-03-25T01:27:58;99884.00;;;5.71;86.79
10115;BME280;5097;43.260;27.812;2023-03-25T01:30:42;99898.91;;;5.69;87.08
10115;BME280;5097;43.260;27.812;2023-03-25T01:33:26;99901.09;;;5.81;87.26
10115;BME280;5097;43.260;27.812;2023-03-25T01:36:10;99884.41;;;5.60;88.27
10115;BME280;5097;43.260;27.812;2023-03-25T01:38:57;99875.03;;;5.53;88.38
10115;BME280;5097;43.260;27.812;2023-03-25T01:41:44;99862.38;;;5.41;87.34
10115;BME280;5097;43.260;27.812;2023-03-25T01:48:05;99868.03;;;5.77;86.89
10115;BME280;5097;43.260;27.812;2023-03-25T01:50:54;99883.72;;;5.79;87.18
10115;BME280;5097;43.260;27.812;2023-03-25T01:53:41;99889.41;;;5.90;86.41
10115;BME280;5097;43.260;27.812;2023-03-25T01:56:29;99895.41;;;5.94;86.84
10115;BME280;5097;43.260;27.812;2023-03-25T01:59:15;99905.56;;;6.03;86.13
10115;BME280;5097;43.260;27.812;2023-03-25T02:02:03;99865.16;;;5.61;86.25
10115;BME280;5097;43.260;27.812;2023-03-25T02:04:54;99863.72;;;5.52;86.28
10115;BME280;5097;43.260;27.812;2023-03-25T02:07:41;99860.06;;;5.57;86.09
10115;BME280;5097;43.260;27.812;2023-03-25T02:10:28;99838.28;;;5.31;86.36
10115;BME280;5097;43.260;27.812;2023-03-25T02:13:14;99815.00;;;4.98;87.28
10115;BME280;5097;43.260;27.812;2023-03-25T02:16:17;99880.28;;;5.77;88.90
10115;BME280;5097;43.260;27.812;2023-03-25T02:19:26;99891.34;;;6.32;89.32
10115;BME280;5097;43.260;27.812;2023-03-25T02:22:42;99847.94;;;6.46;91.29
10115;BME280;5097;43.260;27.812;2023-03-25T02:29:02;99857.41;;;6.93;93.28
10115;BME280;5097;43.260;27.812;2023-03-25T02:32:03;99851.28;;;6.92;94.03
10115;BME280;5097;43.260;27.812;2023-03-25T02:35:03;99887.13;;;7.34;92.70
10115;BME280;5097;43.260;27.812;2023-03-25T02:38:06;99876.22;;;7.02;91.75
10115;BME280;5097;43.260;27.812;2023-03-25T02:41:04;99875.94;;;6.45;91.68
10115;BME280;5097;43.260;27.812;2023-03-25T02:43:54;99873.69;;;6.58;91.86
10115;BME280;5097;43.260;27.812;2023-03-25T02:46:46;99862.84;;;6.23;91.23
10115;BME280;5097;43.260;27.812;2023-03-25T02:49:35;99840.88;;;6.03;91.74
10115;BME280;5097;43.260;27.812;2023-03-25T02:52:23;99866.34;;;6.00;93.10
10115;BME280;5097;43.260;27.812;2023-03-25T02:55:12;99826.47;;;5.90;92.62
10115;BME280;5097;43.260;27.812;2023-03-25T02:57:59;99830.97;;;5.86;94.54
10115;BME280;5097;43.260;27.812;2023-03-25T03:00:47;99869.13;;;6.19;93.87
10115;BME280;5097;43.260;27.812;2023-03-25T03:03:33;99862.34;;;5.90;93.07
10115;BME280;5097;43.260;27.812;2023-03-25T03:06:19;99825.72;;;5.64;92.70
10115;BME280;5097;43.260;27.812;2023-03-25T03:09:19;99853.22;;;5.52;92.14
10115;BME280;5097;43.260;27.812;2023-03-25T03:12:19;99859.66;;;5.44;93.29
10115;BME280;5097;43.260;27.812;2023-03-25T03:15:22;99852.66;;;5.44;94.54
10115;BME280;5097;43.260;27.812;2023-03-25T03:18:14;99851.56;;;5.50;93.89
10115;BME280;5097;43.260;27.812;2023-03-25T03:21:06;99834.94;;;5.51;92.41
10115;BME280;5097;43.260;27.812;2023-03-25T03:23:57;99835.34;;;5.40;93.20
10115;BME280;5097;43.260;27.812;2023-03-25T03:26:47;99833.84;;;5.33;93.87
10115;BME280;5097;43.260;27.812;2023-03-25T03:29:39;99841.44;;;5.41;94.43
10115;BME280;5097;43.260;27.812;2023-03-25T03:32:32;99846.56;;;5.67;94.35
10115;BME280;5097;43.260;27.812;2023-03-25T03:35:22;99847.94;;;6.01;93.96
10115;BME280;5097;43.260;27.812;2023-03-25T03:38:10;99807.63;;;6.26;93.73
10115;BME280;5097;43.260;27.812;2023-03-25T03:41:02;99839.28;;;6.44;93.60
10115;BME280;5097;43.260;27.812;2023-03-25T03:43:49;99829.97;;;6.57;95.72
10115;BME280;5097;43.260;27.812;2023-03-25T03:46:40;99788.19;;;6.52;95.59
10115;BME280;5097;43.260;27.812;2023-03-25T03:49:28;99819.81;;;6.91;95.69
10115;BME280;5097;43.260;27.812;2023-03-25T03:52:18;99789.03;;;6.53;95.19
10115;BME280;5097;43.260;27.812;2023-03-25T03:55:10;99779.16;;;6.37;93.63
10115;BME280;5097;43.260;27.812;2023-03-25T03:57:58;99805.31;;;6.61;93.85
10115;BME280;5097;43.260;27.812;2023-03-25T04:00:47;99781.41;;;6.47;94.92
10115;BME280;5097;43.260;27.812;2023-03-25T04:03:37;99784.84;;;6.49;94.02
10115;BME280;5097;43.260;27.812;2023-03-25T04:06:26;99823.16;;;6.74;93.87
10115;BME280;5097;43.260;27.812;2023-03-25T04:09:21;99825.16;;;6.89;94.13
10115;BME280;5097;43.260;27.812;2023-03-25T04:12:13;99786.88;;;6.83;94.63
10115;BME280;5097;43.260;27.812;2023-03-25T04:15:00;99754.84;;;6.54;94.37
10115;BME280;5097;43.260;27.812;2023-03-25T04:17:45;99826.81;;;7.31;95.06
10115;BME280;5097;43.260;27.812;2023-03-25T04:20:32;99840.56;;;7.57;95.62
10115;BME280;5097;43.260;27.812;2023-03-25T04:23:18;99805.19;;;7.64;95.21
10115;BME280;5097;43.260;27.812;2023-03-25T04:26:02;99837.38;;;7.88;96.67
10115;BME280;5097;43.260;27.812;2023-03-25T04:28:47;99835.84;;;8.21;95.73
10115;BME280;5097;43.260;27.812;2023-03-25T04:31:32;99830.91;;;8.15;96.72
10115;BME280;5097;43.260;27.812;2023-03-25T04:34:16;99803.44;;;8.20;97.02
10115;BME280;5097;43.260;27.812;2023-03-25T04:37:03;99818.91;;;8.46;96.70
10115;BME280;5097;43.260;27.812;2023-03-25T04:39:47;99832.78;;;8.49;95.63
10115;BME280;5097;43.260;27.812;2023-03-25T04:42:31;99836.34;;;8.48;97.75
10115;BME280;5097;43.260;27.812;2023-03-25T04:45:18;99821.84;;;8.57;96.55
10115;BME280;5097;43.260;27.812;2023-03-25T04:48:03;99772.56;;;8.24;96.08
10115;BME280;5097;43.260;27.812;2023-03-25T04:50:47;99786.41;;;8.47;96.49
10115;BME280;5097;43.260;27.812;2023-03-25T04:53:34;99822.66;;;8.77;94.60
10115;BME280;5097;43.260;27.812;2023-03-25T04:56:18;99786.84;;;8.90;95.15
10115;BME280;5097;43.260;27.812;2023-03-25T04:59:02;99820.56;;;9.34;93.65
10115;BME280;5097;43.260;27.812;2023-03-25T05:01:48;99735.16;;;8.87;92.38
10115;BME280;5097;43.260;27.812;2023-03-25T05:04:32;99770.91;;;9.09;92.20
10115;BME280;5097;43.260;27.812;2023-03-25T05:07:17;99743.91;;;8.88;93.04
10115;BME280;5097;43.260;27.812;2023-03-25T05:10:03;99791.38;;;9.37;92.22
10115;BME280;5097;43.260;27.812;2023-03-25T05:12:48;99778.13;;;9.55;91.54
10115;BME280;5097;43.260;27.812;2023-03-25T05:15:33;99820.13;;;10.07;89.06
10115;BME280;5097;43.260;27.812;2023-03-25T05:18:20;99824.63;;;9.89;90.81
10115;BME280;5097;43.260;27.812;2023-03-25T05:21:05;99781.81;;;9.68;88.81
10115;BME280;5097;43.260;27.812;2023-03-25T05:23:49;99825.13;;;9.96;90.40
10115;BME280;5097;43.260;27.812;2023-03-25T05:26:35;99786.16;;;10.01;88.10
10115;BME280;5097;43.260;27.812;2023-03-25T05:29:19;99788.19;;;10.12;88.10
10115;BME280;5097;43.260;27.812;2023-03-25T05:32:03;99778.78;;;9.27;90.80
10115;BME280;5097;43.260;27.812;2023-03-25T05:34:47;99805.41;;;9.71;91.53
10115;BME280;5097;43.260;27.812;2023-03-25T05:37:31;99825.22;;;10.11;90.98
10115;BME280;5097;43.260;27.812;2023-03-25T05:40:15;99795.88;;;9.85;89.23
10115;BME280;5097;43.260;27.812;2023-03-25T05:43:01;99831.78;;;9.04;94.82
10115;BME280;5097;43.260;27.812;2023-03-25T05:45:45;99798.53;;;9.35;94.04
10115;BME280;5097;43.260;27.812;2023-03-25T05:48:29;99809.66;;;10.06;91.58
10115;BME280;5097;43.260;27.812;2023-03-25T05:51:16;99802.50;;;10.85;87.10
10115;BME280;5097;43.260;27.812;2023-03-25T05:54:03;99795.28;;;11.32;84.65
10115;BME280;5097;43.260;27.812;2023-03-25T05:56:53;99820.81;;;10.73;86.11
10115;BME280;5097;43.260;27.812;2023-03-25T05:59:39;99782.59;;;9.86;87.35
10115;BME280;5097;43.260;27.812;2023-03-25T06:02:23;99817.31;;;9.79;90.15
10115;BME280;5097;43.260;27.812;2023-03-25T06:05:08;99786.97;;;10.18;89.47
10115;BME280;5097;43.260;27.812;2023-03-25T06:07:55;99783.31;;;10.67;86.22
10115;BME280;5097;43.260;27.812;2023-03-25T06:10:39;99809.56;;;11.58;83.03
10115;BME280;5097;43.260;27.812;2023-03-25T06:13:23;99815.97;;;11.54;81.93
10115;BME280;5097;43.260;27.812;2023-03-25T06:16:09;99790.59;;;11.22;83.51
10115;BME280;5097;43.260;27.812;2023-03-25T06:18:53;99757.41;;;10.73;83.53
10115;BME280;5097;43.260;27.812;2023-03-25T06:21:42;99789.81;;;11.06;85.21
10115;BME280;5097;43.260;27.812;2023-03-25T06:24:30;99797.38;;;11.55;82.71
10115;BME280;5097;43.260;27.812;2023-03-25T06:27:16;99798.16;;;12.27;80.14
10115;BME280;5097;43.260;27.812;2023-03-25T06:30:01;99765.41;;;11.58;80.51
10115;BME280;5097;43.260;27.812;2023-03-25T06:32:47;99768.78;;;11.19;82.78
10115;BME280;5097;43.260;27.812;2023-03-25T06:35:34;99799.16;;;11.40;82.67
10115;BME280;5097;43.260;27.812;2023-03-25T06:38:19;99798.28;;;11.83;80.16
10115;BME280;5097;43.260;27.812;2023-03-25T06:41:18;99800.19;;;11.67;81.18
10115;BME280;5097;43.260;27.812;2023-03-25T06:44:10;99771.13;;;10.95;81.61
10115;BME280;5097;43.260;27.812;2023-03-25T06:47:00;99806.50;;;11.79;82.04
10115;BME280;5097;43.260;27.812;2023-03-25T06:50:09;99818.91;;;12.20;79.58
10115;BME280;5097;43.260;27.812;2023-03-25T06:52:53;99814.06;;;12.54;77.05
10115;BME280;5097;43.260;27.812;2023-03-25T06:55:37;99782.88;;;11.76;77.86
10115;BME280;5097;43.260;27.812;2023-03-25T06:58:22;99814.72;;;11.88;78.47
10115;BME280;5097;43.260;27.812;2023-03-25T07:01:06;99793.19;;;11.66;78.56
10115;BME280;5097;43.260;27.812;2023-03-25T07:03:51;99818.25;;;11.60;78.71
10115;BME280;5097;43.260;27.812;2023-03-25T07:06:37;99775.84;;;10.59;82.88
10115;BME280;5097;43.260;27.812;2023-03-25T07:09:21;99816.34;;;11.19;81.92
10115;BME280;5097;43.260;27.812;2023-03-25T07:12:05;99787.06;;;10.93;82.26
10115;BME280;5097;43.260;27.812;2023-03-25T07:14:51;99787.66;;;10.37;83.91
10115;BME280;5097;43.260;27.812;2023-03-25T07:17:35;99822.72;;;10.86;84.24
10115;BME280;5097;43.260;27.812;2023-03-25T07:20:19;99804.72;;;10.16;86.43
10115;BME280;5097;43.260;27.812;2023-03-25T07:23:05;99802.47;;;10.40;86.90
10115;BME280;5097;43.260;27.812;2023-03-25T07:25:49;99805.94;;;10.87;84.30
10115;BME280;5097;43.260;27.812;2023-03-25T07:28:34;99792.31;;;10.79;84.77
10115;BME280;5097;43.260;27.812;2023-03-25T07:31:19;99808.53;;;10.72;85.35
10115;BME280;5097;43.260;27.812;2023-03-25T07:34:03;99771.47;;;10.44;85.66
10115;BME280;5097;43.260;27.812;2023-03-25T07:36:49;99772.00;;;10.18;86.26
10115;BME280;5097;43.260;27.812;2023-03-25T07:39:35;99738.44;;;9.58;87.34
10115;BME280;5097;43.260;27.812;2023-03-25T07:42:19;99800.28;;;10.00;88.49
10115;BME280;5097;43.260;27.812;2023-03-25T07:45:21;99797.94;;;10.42;87.08
10115;BME280;5097;43.260;27.812;2023-03-25T07:48:07;99795.66;;;10.97;83.87
10115;BME280;5097;43.260;27.812;2023-03-25T07:50:56;99800.41;;;10.61;84.44
10115;BME280;5097;43.260;27.812;2023-03-25T07:53:40;99787.47;;;10.40;86.82
10115;BME280;5097;43.260;27.812;2023-03-25T07:56:28;99766.03;;;10.31;85.53
10115;BME280;5097;43.260;27.812;2023-03-25T07:59:12;99794.34;;;10.13;87.19
10115;BME280;5097;43.260;27.812;2023-03-25T08:01:56;99760.09;;;9.95;88.36
10115;BME280;5097;43.260;27.812;2023-03-25T08:04:40;99787.13;;;10.47;86.74
10115;BME280;5097;43.260;27.812;2023-03-25T08:07:24;99773.63;;;10.21;88.56
10115;BME280;5097;43.260;27.812;2023-03-25T08:10:10;99785.69;;;10.71;86.14
10115;BME280;5097;43.260;27.812;2023-03-25T08:12:58;99752.94;;;10.13;86.33
10115;BME280;5097;43.260;27.812;2023-03-25T08:15:41;99790.22;;;10.23;87.58
10115;BME280;5097;43.260;27.812;2023-03-25T08:18:26;99795.88;;;9.69;89.10
10115;BME280;5097;43.260;27.812;2023-03-25T08:21:10;99743.72;;;10.20;87.13
10115;BME280;5097;43.260;27.812;2023-03-25T08:23:55;99757.91;;;10.50;86.46
10115;BME280;5097;43.260;27.812;2023-03-25T08:26:43;99728.69;;;10.53;84.80
10115;BME280;5097;43.260;27.812;2023-03-25T08:29:29;99762.97;;;10.38;86.05
10115;BME280;5097;43.260;27.812;2023-03-25T08:32:16;99728.66;;;10.38;86.31
10115;BME280;5097;43.260;27.812;2023-03-25T08:35:00;99758.00;;;10.48;86.18
10115;BME280;5097;43.260;27.812;2023-03-25T08:37:47;99727.09;;;9.88;88.71
10115;BME280;5097;43.260;27.812;2023-03-25T08:40:31;99753.34;;;10.68;87.14
10115;BME280;5097;43.260;27.812;2023-03-25T08:43:15;99767.88;;;10.45;86.24
10115;BME280;5097;43.260;27.812;2023-03-25T08:46:00;99734.19;;;10.18;85.89
10115;BME280;5097;43.260;27.812;2023-03-25T08:48:45;99734.50;;;9.97;87.16
10115;BME280;5097;43.260;27.812;2023-03-25T08:51:31;99719.81;;;10.23;85.90
10115;BME280;5097;43.260;27.812;2023-03-25T08:54:15;99725.13;;;10.38;86.04
10115;BME280;5097;43.260;27.812;2023-03-25T08:57:00;99756.22;;;11.22;84.31
10115;BME280;5097;43.260;27.812;2023-03-25T08:59:44;99733.25;;;11.09;82.96
10115;BME280;5097;43.260;27.812;2023-03-25T09:02:29;99760.44;;;11.25;82.48
10115;BME280;5097;43.260;27.812;2023-03-25T09:05:13;99724.66;;;10.76;82.81
10115;BME280;5097;43.260;27.812;2023-03-25T09:07:58;99761.97;;;11.00;83.88
10115;BME280;5097;43.260;27.812;2023-03-25T09:10:42;99743.81;;;10.94;84.96
10115;BME280;5097;43.260;27.812;2023-03-25T09:13:26;99726.38;;;10.77;84.26
10115;BME280;5097;43.260;27.812;2023-03-25T09:16:10;99753.94;;;10.27;86.96
10115;BME280;5097;43.260;27.812;2023-03-25T09:18:56;99705.84;;;10.21;88.09
10115;BME280;5097;43.260;27.812;2023-03-25T09:21:40;99741.84;;;10.38;87.27
10115;BME280;5097;43.260;27.812;2023-03-25T09:24:25;99737.88;;;11.34;83.57
10115;BME280;5097;43.260;27.812;2023-03-25T09:27:09;99694.53;;;11.22;81.33
10115;BME280;5097;43.260;27.812;2023-03-25T09:29:53;99673.78;;;10.58;84.40
10115;BME280;5097;43.260;27.812;2023-03-25T09:32:37;99736.59;;;10.53;85.59
10115;BME280;5097;43.260;27.812;2023-03-25T09:35:23;99688.75;;;10.13;88.60
10115;BME280;5097;43.260;27.812;2023-03-25T09:38:07;99730.59;;;11.37;84.71
10115;BME280;5097;43.260;27.812;2023-03-25T09:40:51;99733.16;;;11.10;83.71
10115;BME280;5097;43.260;27.812;2023-03-25T09:43:51;99706.53;;;10.55;84.65
10115;BME280;5097;43.260;27.812;2023-03-25T09:46:38;99691.16;;;10.77;85.58
10115;BME280;5097;43.260;27.812;2023-03-25T09:49:25;99727.75;;;11.55;82.67
10115;BME280;5097;43.260;27.812;2023-03-25T09:52:17;99688.44;;;11.49;81.78
10115;BME280;5097;43.260;27.812;2023-03-25T09:55:06;99684.81;;;10.65;83.98
10115;BME280;5097;43.260;27.812;2023-03-25T09:57:56;99653.22;;;11.06;81.74
10115;BME280;5097;43.260;27.812;2023-03-25T10:00:44;99671.97;;;11.31;81.28
10115;BME280;5097;43.260;27.812;2023-03-25T10:03:34;99682.00;;;11.11;83.49
10115;BME280;5097;43.260;27.812;2023-03-25T10:06:22;99677.50;;;11.40;82.51
10115;BME280;5097;43.260;27.812;2023-03-25T10:09:23;99671.97;;;11.58;81.04
10115;BME280;5097;43.260;27.812;2023-03-25T10:12:24;99681.69;;;11.30;83.20
10115;BME280;5097;43.260;27.812;2023-03-25T10:15:25;99699.78;;;11.78;81.65
10115;BME280;5097;43.260;27.812;2023-03-25T10:18:27;99657.72;;;11.19;81.97
10115;BME280;5097;43.260;27.812;2023-03-25T10:21:18;99636.03;;;11.41;81.32
10115;BME280;5097;43.260;27.812;2023-03-25T10:24:12;99651.53;;;11.33;81.22
10115;BME280;5097;43.260;27.812;2023-03-25T10:27:04;99681.56;;;11.46;82.75
10115;BME280;5097;43.260;27.812;2023-03-25T10:29:51;99617.72;;;10.96;82.76
10115;BME280;5097;43.260;27.812;2023-03-25T10:32:39;99666.75;;;11.98;81.87
10115;BME280;5097;43.260;27.812;2023-03-25T10:35:27;99632.66;;;12.06;79.24
10115;BME280;5097;43.260;27.812;2023-03-25T10:38:15;99630.41;;;12.40;79.08
10115;BME280;5097;43.260;27.812;2023-03-25T10:41:10;99628.25;;;12.58;77.03
10115;BME280;5097;43.260;27.812;2023-03-25T10:43:58;99645.63;;;12.88;76.18
10115;BME280;5097;43.260;27.812;2023-03-25T10:46:44;99655.84;;;13.19;75.66
10115;BME280;5097;43.260;27.812;2023-03-25T10:49:30;99656.25;;;13.38;76.01
10115;BME280;5097;43.260;27.812;2023-03-25T10:52:15;99625.44;;;13.12;74.71
10115;BME280;5097;43.260;27.812;2023-03-25T10:54:59;99617.19;;;13.03;75.10
10115;BME280;5097;43.260;27.812;2023-03-25T10:57:45;99636.19;;;13.34;74.19
10115;BME280;5097;43.260;27.812;2023-03-25T11:00:30;99610.66;;;12.83;73.56
10115;BME280;5097;43.260;27.812;2023-03-25T11:03:19;99599.00;;;12.73;74.98
10115;BME280;5097;43.260;27.812;2023-03-25T11:06:04;99643.53;;;12.81;75.84
10115;BME280;5097;43.260;27.812;2023-03-25T11:09:11;99596.97;;;11.59;79.53
10115;BME280;5097;43.260;27.812;2023-03-25T11:11:59;99601.56;;;12.49;76.37
10115;BME280;5097;43.260;27.812;2023-03-25T11:14:43;99624.97;;;12.29;77.22
10115;BME280;5097;43.260;27.812;2023-03-25T11:17:28;99582.31;;;11.81;78.86
10115;BME280;5097;43.260;27.812;2023-03-25T11:20:18;99557.75;;;11.91;76.88
10115;BME280;5097;43.260;27.812;2023-03-25T11:23:06;99611.00;;;12.53;76.90
10115;BME280;5097;43.260;27.812;2023-03-25T11:25:51;99562.69;;;12.11;76.58
10115;BME280;5097;43.260;27.812;2023-03-25T11:28:39;99550.91;;;12.53;75.22
10115;BME280;5097;43.260;27.812;2023-03-25T11:31:26;99595.00;;;12.67;76.88
10115;BME280;5097;43.260;27.812;2023-03-25T11:34:18;99596.19;;;13.00;74.95
10115;BME280;5097;43.260;27.812;2023-03-25T11:37:11;99558.78;;;12.79;74.92
10115;BME280;5097;43.260;27.812;2023-03-25T11:40:05;99590.84;;;13.13;75.04
10115;BME280;5097;43.260;27.812;2023-03-25T11:42:57;99591.00;;;12.99;73.40
10115;BME280;5097;43.260;27.812;2023-03-25T11:45:41;99551.38;;;13.08;73.07
10115;BME280;5097;43.260;27.812;2023-03-25T11:48:30;99561.03;;;13.10;73.34
10115;BME280;5097;43.260;27.812;2023-03-25T11:51:19;99552.19;;;13.22;73.28
10115;BME280;5097;43.260;27.812;2023-03-25T11:54:06;99550.16;;;13.01;72.70
10115;BME280;5097;43.260;27.812;2023-03-25T11:56:51;99537.50;;;12.81;74.88
10115;BME280;5097;43.260;27.812;2023-03-25T11:59:42;99569.41;;;13.16;73.44
10115;BME280;5097;43.260;27.812;2023-03-25T12:02:28;99513.53;;;13.06;72.61
10115;BME280;5097;43.260;27.812;2023-03-25T12:05:15;99556.25;;;13.15;71.34
10115;BME280;5097;43.260;27.812;2023-03-25T12:08:04;99576.75;;;12.24;77.26
10115;BME280;5097;43.260;27.812;2023-03-25T12:10:57;99523.78;;;12.50;75.11
10115;BME280;5097;43.260;27.812;2023-03-25T12:13:50;99527.06;;;12.90;73.86
10115;BME280;5097;43.260;27.812;2023-03-25T12:16:40;99575.84;;;12.88;74.62
10115;BME280;5097;43.260;27.812;2023-03-25T12:19:33;99499.19;;;12.48;73.41
10115;BME280;5097;43.260;27.812;2023-03-25T12:22:34;99538.28;;;12.57;74.29
10115;BME280;5097;43.260;27.812;2023-03-25T12:25:34;99536.94;;;12.51;73.32
10115;BME280;5097;43.260;27.812;2023-03-25T12:28:48;99529.97;;;11.18;80.28
10115;BME280;5097;43.260;27.812;2023-03-25T12:31:56;99552.94;;;11.58;80.08
10115;BME280;5097;43.260;27.812;2023-03-25T12:34:53;99550.97;;;11.07;82.87
10115;BME280;5097;43.260;27.812;2023-03-25T12:37:56;99479.97;;;10.46;83.79
10115;BME280;5097;43.260;27.812;2023-03-25T12:40:58;99550.22;;;11.72;82.06
10115;BME280;5097;43.260;27.812;2023-03-25T12:43:57;99556.06;;;11.37;82.89
10115;BME280;5097;43.260;27.812;2023-03-25T12:47:02;99511.06;;;10.97;81.88
10115;BME280;5097;43.260;27.812;2023-03-25T12:50:00;99542.16;;;11.61;81.39
10115;BME280;5097;43.260;27.812;2023-03-25T12:52:54;99540.22;;;12.03;78.42
10115;BME280;5097;43.260;27.812;2023-03-25T12:55:51;99531.00;;;12.09;78.16
10115;BME280;5097;43.260;27.812;2023-03-25T13:02:08;99488.22;;;11.89;77.14
10115;BME280;5097;43.260;27.812;2023-03-25T13:05:04;99481.13;;;11.90;76.70
10115;BME280;5097;43.260;27.812;2023-03-25T13:07:58;99490.47;;;12.09;76.26
10115;BME280;5097;43.260;27.812;2023-03-25T13:10:47;99482.06;;;12.15;76.47
10115;BME280;5097;43.260;27.812;2023-03-25T13:13:37;99484.78;;;12.39;75.22
10115;BME280;5097;43.260;27.812;2023-03-25T13:16:24;99514.03;;;12.63;75.10
10115;BME280;5097;43.260;27.812;2023-03-25T13:19:12;99515.97;;;12.72;74.75
10115;BME280;5097;43.260;27.812;2023-03-25T13:22:02;99479.09;;;11.68;78.11
10115;BME280;5097;43.260;27.812;2023-03-25T13:24:51;99503.88;;;11.93;80.17
10115;BME280;5097;43.260;27.812;2023-03-25T13:27:39;99511.94;;;12.17;78.72
10115;BME280;5097;43.260;27.812;2023-03-25T13:30:30;99498.94;;;12.64;75.53
10115;BME280;5097;43.260;27.812;2023-03-25T13:33:18;99465.28;;;11.37;78.65
10115;BME280;5097;43.260;27.812;2023-03-25T13:36:07;99463.19;;;11.29;80.85
10115;BME280;5097;43.260;27.812;2023-03-25T13:38:55;99506.19;;;12.49;77.53
10115;BME280;5097;43.260;27.812;2023-03-25T13:41:43;99494.91;;;12.95;76.25
10115;BME280;5097;43.260;27.812;2023-03-25T13:44:30;99465.25;;;12.16;75.08
10115;BME280;5097;43.260;27.812;2023-03-25T13:47:20;99490.91;;;12.89;75.45
10115;BME280;5097;43.260;27.812;2023-03-25T13:50:13;99458.16;;;12.53;74.77
10115;BME280;5097;43.260;27.812;2023-03-25T13:53:03;99420.28;;;12.64;73.52
10115;BME280;5097;43.260;27.812;2023-03-25T13:55:58;99445.13;;;13.12;72.88
10115;BME280;5097;43.260;27.812;2023-03-25T13:59:01;99474.41;;;13.10;72.85
10115;BME280;5097;43.260;27.812;2023-03-25T14:02:08;99431.53;;;12.68;72.04
10115;BME280;5097;43.260;27.812;2023-03-25T14:05:19;99492.34;;;12.69;73.84
10115;BME280;5097;43.260;27.812;2023-03-25T14:08:37;99473.63;;;12.10;77.24
10115;BME280;5097;43.260;27.812;2023-03-25T14:11:33;99449.56;;;11.74;78.15
10115;BME280;5097;43.260;27.812;2023-03-25T14:14:21;99453.28;;;11.97;76.82
10115;BME280;5097;43.260;27.812;2023-03-25T14:17:06;99448.47;;;11.38;79.21
10115;BME280;5097;43.260;27.812;2023-03-25T14:19:52;99453.06;;;11.74;78.25
10115;BME280;5097;43.260;27.812;2023-03-25T14:22:41;99481.66;;;11.69;78.21
10115;BME280;5097;43.260;27.812;2023-03-25T14:25:28;99461.91;;;11.35;80.63
10115;BME280;5097;43.260;27.812;2023-03-25T14:28:18;99423.97;;;11.62;78.71
10115;BME280;5097;43.260;27.812;2023-03-25T14:31:14;99424.06;;;11.99;77.59
10115;BME280;5097;43.260;27.812;2023-03-25T14:34:26;99449.59;;;11.87;79.93
10115;BME280;5097;43.260;27.812;2023-03-25T14:37:23;99416.44;;;11.68;79.20
10115;BME280;5097;43.260;27.812;2023-03-25T14:43:51;99448.72;;;11.07;82.13
10115;BME280;5097;43.260;27.812;2023-03-25T14:46:43;99417.09;;;11.06;82.29
10115;BME280;5097;43.260;27.812;2023-03-25T14:49:46;99451.25;;;11.88;80.05
10115;BME280;5097;43.260;27.812;2023-03-25T14:52:38;99449.78;;;11.58;80.17
10115;BME280;5097;43.260;27.812;2023-03-25T14:55:26;99448.75;;;10.53;85.55
10115;BME280;5097;43.260;27.812;2023-03-25T14:58:17;99455.25;;;10.89;84.14
10115;BME280;5097;43.260;27.812;2023-03-25T15:01:07;99414.53;;;10.92;83.12
10115;BME280;5097;43.260;27.812;2023-03-25T15:04:07;99378.66;;;10.47;81.81
10115;BME280;5097;43.260;27.812;2023-03-25T15:06:53;99452.88;;;9.56;88.57
10115;BME280;5097;43.260;27.812;2023-03-25T15:09:45;99439.50;;;9.45;90.98
10115;BME280;5097;43.260;27.812;2023-03-25T15:12:29;99408.22;;;9.96;88.01
10115;BME280;5097;43.260;27.812;2023-03-25T15:15:25;99448.16;;;10.33;87.16